createdAt,value
2022-11-14T00:00:52.400Z,63.42
2022-11-14T00:03:18.765Z,63.58
2022-11-14T00:05:46.218Z,63.32
2022-11-14T00:08:17.100Z,63.33
2022-11-14T00:10:47.753Z,63.21
2022-11-14T00:13:14.902Z,63.59
2022-11-14T00:15:41.497Z,63.32
2022-11-14T00:18:08.176Z,63.46
2022-11-14T00:20:34.491Z,63.70
2022-11-14T00:23:00.892Z,62.94
2022-11-14T00:25:27.393Z,63.10
2022-11-14T00:27:57.514Z,62.72
2022-11-14T00:30:24.081Z,62.80
2022-11-14T00:32:50.483Z,63.32
2022-11-14T00:35:17.021Z,63.28
2022-11-14T00:37:43.479Z,63.62
2022-11-14T00:40:10.057Z,63.42
2022-11-14T00:42:36.495Z,63.50
2022-11-14T00:45:03.204Z,63.74
2022-11-14T00:47:29.554Z,63.53
2022-11-14T00:49:55.896Z,63.38
2022-11-14T00:52:22.232Z,62.86
2022-11-14T00:54:48.619Z,62.95
2022-11-14T00:57:14.942Z,63.33
2022-11-14T00:59:41.304Z,63.00
2022-11-14T01:02:07.661Z,63.50
2022-11-14T01:04:34.296Z,63.66
2022-11-14T01:07:00.718Z,63.93
2022-11-14T01:09:27.180Z,63.91
2022-11-14T01:11:53.632Z,64.31
2022-11-14T01:14:20.040Z,64.72
2022-11-14T01:16:46.382Z,64.52
2022-11-14T01:19:12.729Z,65.69
2022-11-14T01:21:39.150Z,66.47
2022-11-14T01:24:06.078Z,66.39
2022-11-14T01:26:32.410Z,67.11
2022-11-14T01:28:58.982Z,66.72
2022-11-14T01:31:26.125Z,66.28
2022-11-14T01:33:53.784Z,65.86
2022-11-14T01:36:20.728Z,65.82
2022-11-14T01:38:47.136Z,65.59
2022-11-14T01:41:15.735Z,65.75
2022-11-14T01:43:43.163Z,65.96
2022-11-14T01:46:25.765Z,66.23
2022-11-14T01:48:54.217Z,66.16
2022-11-14T01:51:32.503Z,66.23
2022-11-14T01:54:02.399Z,64.74
2022-11-14T01:56:46.550Z,64.82
2022-11-14T01:59:18.025Z,64.22
2022-11-14T02:01:48.069Z,63.84
2022-11-14T02:04:27.249Z,64.09
2022-11-14T02:06:57.258Z,64.22
2022-11-14T02:09:24.109Z,64.17
2022-11-14T02:11:51.997Z,64.80
2022-11-14T02:14:18.303Z,64.79
2022-11-14T02:16:55.646Z,65.09
2022-11-14T02:19:52.306Z,65.83
2022-11-14T02:22:19.091Z,65.42
2022-11-14T02:24:46.073Z,65.29
2022-11-14T02:27:14.364Z,65.66
2022-11-14T02:29:40.879Z,65.57
2022-11-14T02:32:10.626Z,65.68
2022-11-14T02:34:37.942Z,65.82
2022-11-14T02:37:04.396Z,65.68
2022-11-14T02:39:30.799Z,65.98
2022-11-14T02:41:57.203Z,65.92
2022-11-14T02:44:23.730Z,66.38
2022-11-14T02:46:50.162Z,66.42
2022-11-14T02:49:16.532Z,66.26
2022-11-14T02:51:43.112Z,66.14
2022-11-14T02:54:09.480Z,66.36
2022-11-14T02:56:35.869Z,65.58
2022-11-14T02:59:02.184Z,65.46
2022-11-14T03:01:28.623Z,65.01
2022-11-14T03:03:55.076Z,65.10
2022-11-14T03:06:21.434Z,65.09
2022-11-14T03:08:47.740Z,64.79
2022-11-14T03:11:14.116Z,64.67
2022-11-14T03:13:40.533Z,64.73
2022-11-14T03:16:08.829Z,64.90
2022-11-14T03:18:35.833Z,64.52
2022-11-14T03:21:11.765Z,64.69
2022-11-14T03:23:38.184Z,64.98
2022-11-14T03:26:07.495Z,64.67
2022-11-14T03:28:34.340Z,65.19
2022-11-14T03:31:00.709Z,65.32
2022-11-14T03:33:27.090Z,65.22
2022-11-14T03:35:53.437Z,64.99
2022-11-14T03:38:23.103Z,64.74
2022-11-14T03:40:50.640Z,65.19
2022-11-14T03:43:17.744Z,65.34
2022-11-14T03:45:44.740Z,65.88
2022-11-14T03:48:11.562Z,65.81
2022-11-14T03:50:37.963Z,66.10
2022-11-14T03:53:04.558Z,66.21
2022-11-14T03:55:30.977Z,66.08
2022-11-14T03:57:57.328Z,66.23
2022-11-14T04:00:23.728Z,65.76
2022-11-14T04:02:50.084Z,65.75
2022-11-14T04:05:16.531Z,65.63
2022-11-14T04:07:42.867Z,65.96
2022-11-14T04:10:09.309Z,65.54
2022-11-14T04:12:35.624Z,65.77
2022-11-14T04:15:01.988Z,65.61
2022-11-14T04:17:28.352Z,66.26
2022-11-14T04:19:54.690Z,65.73
2022-11-14T04:22:21.100Z,66.10
2022-11-14T04:24:47.549Z,66.19
2022-11-14T04:27:13.911Z,66.14
2022-11-14T04:29:40.241Z,65.72
2022-11-14T04:32:06.608Z,65.72
2022-11-14T04:34:33.096Z,65.84
2022-11-14T04:36:59.490Z,66.15
2022-11-14T04:39:25.936Z,65.96
2022-11-14T04:41:52.282Z,65.86
2022-11-14T04:44:18.626Z,65.91
2022-11-14T04:46:45.027Z,65.92
2022-11-14T04:49:11.355Z,65.85
2022-11-14T04:51:37.695Z,65.52
2022-11-14T04:54:04.144Z,64.98
2022-11-14T04:56:30.537Z,65.53
2022-11-14T04:58:56.972Z,65.26
2022-11-14T05:01:23.363Z,64.81
2022-11-14T05:03:49.741Z,64.90
2022-11-14T05:06:16.247Z,64.85
2022-11-14T05:08:42.765Z,64.93
2022-11-14T05:11:14.650Z,65.31
2022-11-14T05:13:41.085Z,65.67
2022-11-14T05:16:07.618Z,65.63
2022-11-14T05:18:34.035Z,65.39
2022-11-14T05:21:01.136Z,65.45
2022-11-14T05:23:27.792Z,65.44
2022-11-14T05:26:05.716Z,66.09
2022-11-14T05:28:32.791Z,66.09
2022-11-14T05:31:04.470Z,66.27
2022-11-14T05:33:31.297Z,66.27
2022-11-14T05:36:09.145Z,66.24
2022-11-14T05:38:35.790Z,66.48
2022-11-14T05:41:13.696Z,66.76
2022-11-14T05:43:40.836Z,66.88
2022-11-14T05:46:11.021Z,66.82
2022-11-14T05:48:38.201Z,66.56
2022-11-14T05:51:06.814Z,66.63
2022-11-14T05:53:34.200Z,67.25
2022-11-14T05:56:06.514Z,67.97
2022-11-14T05:58:34.130Z,67.74
2022-11-14T06:01:08.818Z,67.82
2022-11-14T06:03:38.372Z,67.46
2022-11-14T06:06:07.162Z,67.37
2022-11-14T06:08:34.471Z,67.23
2022-11-14T06:11:06.378Z,67.25
2022-11-14T06:13:33.537Z,66.82
2022-11-14T06:16:05.027Z,67.06
2022-11-14T06:18:32.852Z,67.42
2022-11-14T06:21:08.167Z,67.27
2022-11-14T06:23:34.699Z,67.20
2022-11-14T06:26:02.901Z,67.28
2022-11-14T06:28:30.115Z,67.71
2022-11-14T06:31:00.943Z,67.83
2022-11-14T06:33:28.536Z,67.28
2022-11-14T06:35:59.389Z,67.68
2022-11-14T06:38:26.211Z,67.38
2022-11-14T06:40:52.801Z,67.42
2022-11-14T06:43:19.109Z,68.16
2022-11-14T06:45:45.520Z,68.53
2022-11-14T06:48:11.853Z,68.34
2022-11-14T06:50:38.210Z,68.78
2022-11-14T06:53:04.528Z,68.42
2022-11-14T06:55:30.953Z,68.58
2022-11-14T06:57:57.276Z,68.63
2022-11-14T07:00:23.747Z,69.18
2022-11-14T07:02:50.187Z,69.23
2022-11-14T07:05:16.590Z,68.73
2022-11-14T07:07:42.892Z,68.58
2022-11-14T07:10:09.744Z,68.72
2022-11-14T07:12:36.099Z,68.85
2022-11-14T07:15:02.416Z,67.96
2022-11-14T07:17:31.441Z,68.36
2022-11-14T07:19:58.030Z,68.34
2022-11-14T07:22:24.372Z,68.14
2022-11-14T07:24:50.707Z,68.31
2022-11-14T07:27:17.032Z,68.22
2022-11-14T07:29:43.347Z,68.20
2022-11-14T07:32:09.641Z,68.39
2022-11-14T07:34:35.949Z,68.45
2022-11-14T07:37:02.443Z,69.18
2022-11-14T07:39:28.977Z,69.42
2022-11-14T07:41:55.284Z,69.27
2022-11-14T07:44:21.608Z,68.47
2022-11-14T07:46:49.993Z,69.10
2022-11-14T07:49:17.009Z,69.05
2022-11-14T07:51:43.360Z,68.52
2022-11-14T07:54:11.920Z,68.35
2022-11-14T07:56:38.740Z,69.23
2022-11-14T07:59:05.120Z,69.29
2022-11-14T08:01:31.553Z,69.10
2022-11-14T08:03:57.938Z,68.70
2022-11-14T08:06:24.283Z,69.17
2022-11-14T08:08:50.636Z,69.82
2022-11-14T08:11:36.902Z,70.29
2022-11-14T08:14:03.301Z,70.57
2022-11-14T08:16:29.613Z,70.90
2022-11-14T08:18:55.958Z,71.25
2022-11-14T08:21:22.414Z,70.50
2022-11-14T08:23:48.812Z,69.84
2022-11-14T08:26:15.158Z,69.79
2022-11-14T08:28:41.657Z,69.92
2022-11-14T08:31:10.123Z,69.67
2022-11-14T08:33:36.469Z,69.67
2022-11-14T08:36:03.694Z,69.60
2022-11-14T08:38:31.988Z,69.44
2022-11-14T08:40:59.489Z,68.89
2022-11-14T08:43:26.339Z,69.48
2022-11-14T08:45:52.724Z,69.61
2022-11-14T08:48:19.114Z,70.71
2022-11-14T08:50:45.585Z,70.34
2022-11-14T08:53:11.928Z,70.23
2022-11-14T08:55:43.961Z,70.26
2022-11-14T08:58:10.286Z,70.64
2022-11-14T09:00:36.633Z,70.77
2022-11-14T09:03:08.632Z,71.17
2022-11-14T09:05:36.366Z,70.37
2022-11-14T09:08:03.902Z,71.09
2022-11-14T09:10:30.340Z,70.41
2022-11-14T09:13:00.756Z,70.92
2022-11-14T09:15:28.999Z,70.91
2022-11-14T09:17:56.674Z,70.73
2022-11-14T09:20:29.816Z,71.08
2022-11-14T09:23:00.025Z,70.75
2022-11-14T09:25:26.504Z,70.13
2022-11-14T09:27:53.403Z,70.57
2022-11-14T09:30:19.899Z,70.61
2022-11-14T09:32:46.333Z,70.26
2022-11-14T09:35:12.814Z,69.44
2022-11-14T09:37:39.669Z,69.41
2022-11-14T09:40:07.209Z,69.63
2022-11-14T09:43:03.366Z,68.89
2022-11-14T09:45:30.252Z,68.43
2022-11-14T09:48:06.705Z,68.35
2022-11-14T09:50:37.033Z,68.38
2022-11-14T09:53:10.356Z,67.92
2022-11-14T09:55:37.573Z,68.29
2022-11-14T09:58:05.251Z,68.44
2022-11-14T10:01:04.969Z,67.87
2022-11-14T10:04:09.350Z,67.49
2022-11-14T10:06:53.001Z,67.26
2022-11-14T10:09:58.094Z,67.54
2022-11-14T10:12:43.164Z,67.87
2022-11-14T10:15:23.945Z,67.94
2022-11-14T10:18:05.291Z,67.67
2022-11-14T10:20:44.697Z,67.97
2022-11-14T10:23:23.147Z,67.49
2022-11-14T10:26:16.126Z,67.09
2022-11-14T10:29:33.240Z,67.29
2022-11-14T10:32:18.877Z,66.23
2022-11-14T10:35:01.527Z,66.51
2022-11-14T10:37:42.296Z,66.47
2022-11-14T10:40:40.997Z,67.04
2022-11-14T10:43:18.712Z,66.43
2022-11-14T10:45:50.724Z,66.56
2022-11-14T10:48:31.533Z,66.79
2022-11-14T10:51:02.591Z,65.71
2022-11-14T10:53:47.165Z,66.37
2022-11-14T10:56:14.624Z,66.70
2022-11-14T10:58:48.441Z,66.28
2022-11-14T11:01:39.696Z,65.83
2022-11-14T11:04:14.889Z,65.98
2022-11-14T11:06:41.412Z,65.89
2022-11-14T11:09:31.383Z,65.74
2022-11-14T11:12:01.672Z,65.59
2022-11-14T11:14:29.460Z,65.06
2022-11-14T11:17:15.559Z,65.04
2022-11-14T11:19:42.870Z,64.68
2022-11-14T11:22:35.090Z,64.95
2022-11-14T11:25:01.490Z,64.83
2022-11-14T11:27:29.367Z,65.23
2022-11-14T11:30:04.135Z,64.81
2022-11-14T11:32:30.688Z,65.37
2022-11-14T11:35:00.094Z,64.82
2022-11-14T11:37:35.511Z,64.16
2022-11-14T11:40:06.600Z,64.24
2022-11-14T11:43:31.677Z,63.83
2022-11-14T11:45:34.605Z,64.00
2022-11-14T11:48:08.945Z,63.95
2022-11-14T11:50:36.513Z,64.82
2022-11-14T11:53:22.123Z,64.48
2022-11-14T11:55:53.248Z,64.37
2022-11-14T11:58:27.623Z,64.37
2022-11-14T12:00:57.820Z,64.49
2022-11-14T12:03:25.975Z,64.27
2022-11-14T12:05:52.334Z,64.02
2022-11-14T12:08:30.912Z,63.39
2022-11-14T12:10:59.095Z,63.24
2022-11-14T12:13:46.064Z,63.19
2022-11-14T12:16:36.610Z,63.62
2022-11-14T12:19:32.232Z,64.15
2022-11-14T12:22:29.998Z,64.17
2022-11-14T12:25:17.115Z,64.21
2022-11-14T12:28:09.865Z,64.31
2022-11-14T12:30:39.334Z,64.33
2022-11-14T12:33:16.147Z,64.51
2022-11-14T12:35:52.387Z,64.80
2022-11-14T12:38:21.054Z,64.79
2022-11-14T12:40:54.206Z,64.95
2022-11-14T12:43:37.826Z,65.24
2022-11-14T12:46:11.368Z,65.04
2022-11-14T12:48:38.930Z,65.49
2022-11-14T12:51:25.219Z,65.35
2022-11-14T12:53:52.650Z,66.02
2022-11-14T12:56:31.287Z,65.19
2022-11-14T12:59:13.350Z,64.80
2022-11-14T13:01:51.971Z,66.09
2022-11-14T13:04:42.963Z,65.65
2022-11-14T13:07:33.895Z,65.06
2022-11-14T13:10:14.638Z,64.96
2022-11-14T13:13:01.658Z,65.15
2022-11-14T13:15:49.411Z,64.91
2022-11-14T13:18:45.050Z,64.64
2022-11-14T13:21:45.614Z,64.97
2022-11-14T13:24:21.461Z,65.16
2022-11-14T13:26:50.597Z,65.50
2022-11-14T13:29:40.955Z,65.35
2022-11-14T13:32:11.805Z,65.71
2022-11-14T13:34:58.327Z,65.30
2022-11-14T13:37:42.273Z,65.65
2022-11-14T13:40:35.378Z,65.33
2022-11-14T13:43:12.697Z,65.40
2022-11-14T13:46:06.855Z,65.30
2022-11-14T13:49:03.001Z,65.16
2022-11-14T13:51:46.423Z,66.09
2022-11-14T13:54:17.845Z,65.45
2022-11-14T13:57:00.893Z,65.78
2022-11-14T13:59:48.180Z,65.41
2022-11-14T14:02:40.451Z,65.94
2022-11-14T14:05:30.041Z,65.99
2022-11-14T14:08:01.493Z,65.78
2022-11-14T14:10:59.326Z,66.33
2022-11-14T14:13:49.827Z,66.10
2022-11-14T14:16:41.650Z,66.03
2022-11-14T14:19:24.505Z,66.34
2022-11-14T14:22:07.233Z,66.30
2022-11-14T14:24:59.479Z,66.43
2022-11-14T14:28:05.118Z,66.47
2022-11-14T14:30:31.492Z,66.73
2022-11-14T14:33:07.032Z,66.87
2022-11-14T14:35:40.223Z,66.37
2022-11-14T14:38:13.206Z,67.02
2022-11-14T14:40:41.869Z,66.57
2022-11-14T14:43:22.123Z,66.56
2022-11-14T14:45:53.079Z,66.45
2022-11-14T14:48:25.085Z,66.80
2022-11-14T14:50:56.534Z,67.39
2022-11-14T14:53:25.637Z,66.94
2022-11-14T14:56:04.278Z,66.71
2022-11-14T14:58:33.479Z,66.59
2022-11-14T15:01:04.927Z,66.90
2022-11-14T15:03:40.446Z,67.14
2022-11-14T15:06:32.900Z,66.27
2022-11-14T15:09:08.124Z,66.79
2022-11-14T15:11:39.786Z,66.69
2022-11-14T15:14:06.782Z,66.49
2022-11-14T15:16:33.546Z,66.47
2022-11-14T15:19:00.660Z,66.70
2022-11-14T15:21:28.871Z,66.87
2022-11-14T15:24:10.642Z,66.61
2022-11-14T15:26:37.049Z,66.52
2022-11-14T15:29:16.577Z,66.50
2022-11-14T15:31:52.740Z,67.04
2022-11-14T15:34:26.592Z,67.13
2022-11-14T15:37:25.984Z,66.51
2022-11-14T15:39:52.442Z,66.86
2022-11-14T15:42:18.766Z,66.71
2022-11-14T15:44:46.811Z,67.03
2022-11-14T15:47:19.752Z,67.41
2022-11-14T15:50:01.010Z,67.11
2022-11-14T15:52:33.297Z,66.98
2022-11-14T15:54:59.877Z,67.66
2022-11-14T15:57:26.381Z,67.07
2022-11-14T15:59:52.870Z,67.09
2022-11-14T16:02:22.892Z,67.02
2022-11-14T16:04:51.888Z,66.97
2022-11-14T16:07:19.124Z,66.96
2022-11-14T16:09:45.674Z,67.63
2022-11-14T16:12:11.961Z,66.83
2022-11-14T16:14:38.465Z,66.83
2022-11-14T16:17:04.994Z,67.19
2022-11-14T16:19:31.751Z,67.19
2022-11-14T16:22:02.849Z,67.40
2022-11-14T16:24:34.003Z,67.28
2022-11-14T16:27:00.850Z,67.50
2022-11-14T16:29:27.350Z,67.21
2022-11-14T16:31:56.454Z,67.13
2022-11-14T16:34:25.876Z,67.54
2022-11-14T16:37:02.737Z,68.16
2022-11-14T16:39:29.808Z,67.93
2022-11-14T16:42:02.854Z,67.84
2022-11-14T16:44:30.156Z,67.96
2022-11-14T16:46:56.565Z,67.73
2022-11-14T16:49:23.024Z,67.68
2022-11-14T16:51:51.296Z,67.46
2022-11-14T16:54:19.194Z,67.54
2022-11-14T16:56:45.599Z,67.46
2022-11-14T16:59:12.313Z,67.66
2022-11-14T17:01:39.042Z,67.30
2022-11-14T17:04:05.719Z,67.17
2022-11-14T17:06:32.189Z,67.22
2022-11-14T17:08:59.871Z,67.72
2022-11-14T17:11:26.729Z,67.73
2022-11-14T17:13:55.164Z,67.74
2022-11-14T17:16:21.539Z,67.43
2022-11-14T17:18:53.794Z,67.99
2022-11-14T17:21:20.824Z,67.76
2022-11-14T17:23:47.234Z,67.80
2022-11-14T17:26:14.117Z,68.02
2022-11-14T17:28:41.443Z,68.13
2022-11-14T17:31:08.585Z,68.62
2022-11-14T17:33:35.742Z,68.35
2022-11-14T17:36:04.403Z,67.82
2022-11-14T17:38:35.031Z,68.33
2022-11-14T17:41:05.537Z,68.13
2022-11-14T17:43:39.572Z,68.30
2022-11-14T17:46:12.599Z,68.48
2022-11-14T17:48:42.019Z,68.47
2022-11-14T17:51:12.587Z,68.46
2022-11-14T17:53:39.516Z,68.53
2022-11-14T17:56:07.705Z,68.21
2022-11-14T17:58:34.204Z,68.63
2022-11-14T18:01:00.795Z,69.24
2022-11-14T18:03:27.555Z,69.21
2022-11-14T18:06:04.799Z,69.60
2022-11-14T18:08:31.483Z,69.49
2022-11-14T18:11:01.991Z,69.58
2022-11-14T18:13:28.436Z,69.92
2022-11-14T18:15:55.175Z,69.80
2022-11-14T18:18:21.513Z,69.76
2022-11-14T18:20:47.844Z,70.16
2022-11-14T18:23:14.284Z,69.63
2022-11-14T18:25:40.624Z,69.68
2022-11-14T18:28:07.084Z,69.67
2022-11-14T18:30:41.282Z,69.57
2022-11-14T18:33:08.368Z,70.17
2022-11-14T18:35:34.715Z,69.94
2022-11-14T18:38:01.129Z,70.16
2022-11-14T18:40:27.463Z,70.19
2022-11-14T18:42:54.327Z,70.23
2022-11-14T18:45:20.654Z,70.30
2022-11-14T18:47:47.035Z,70.24
2022-11-14T18:50:14.080Z,70.38
2022-11-14T18:52:40.465Z,70.32
2022-11-14T18:55:10.114Z,70.20
2022-11-14T18:57:36.581Z,70.18
2022-11-14T19:00:04.397Z,70.34
2022-11-14T19:02:31.639Z,70.36
2022-11-14T19:04:58.060Z,69.98
2022-11-14T19:07:25.969Z,69.75
2022-11-14T19:09:52.418Z,69.59
2022-11-14T19:12:18.843Z,69.75
2022-11-14T19:14:46.209Z,69.78
2022-11-14T19:17:13.481Z,70.04
2022-11-14T19:19:39.794Z,69.90
2022-11-14T19:22:06.243Z,70.07
2022-11-14T19:24:33.062Z,70.04
2022-11-14T19:26:59.383Z,69.91
2022-11-14T19:29:25.814Z,70.34
2022-11-14T19:31:53.213Z,70.14
2022-11-14T19:34:19.533Z,70.61
2022-11-14T19:36:59.233Z,70.23
2022-11-14T19:39:26.673Z,69.57
2022-11-14T19:41:53.098Z,70.06
2022-11-14T19:44:19.710Z,70.05
2022-11-14T19:46:47.869Z,70.17
2022-11-14T19:49:14.685Z,70.28
2022-11-14T19:51:41.034Z,70.46
2022-11-14T19:54:10.316Z,70.47
2022-11-14T19:56:37.058Z,70.06
2022-11-14T19:59:09.550Z,70.16
2022-11-14T20:01:44.186Z,70.43
2022-11-14T20:04:13.099Z,70.88
2022-11-14T20:06:44.047Z,70.85
2022-11-14T20:09:10.894Z,71.11
2022-11-14T20:11:37.831Z,71.10
2022-11-14T20:14:05.567Z,70.62
2022-11-14T20:16:34.181Z,70.50
2022-11-14T20:19:01.765Z,70.85
2022-11-14T20:21:32.780Z,70.54
2022-11-14T20:23:59.426Z,70.30
2022-11-14T20:26:25.885Z,70.44
2022-11-14T20:28:55.035Z,70.30
2022-11-14T20:31:25.569Z,70.26
2022-11-14T20:33:53.876Z,69.96
2022-11-14T20:36:24.185Z,70.12
2022-11-14T20:38:52.065Z,69.70
2022-11-14T20:41:19.926Z,69.71
2022-11-14T20:43:47.015Z,69.70
2022-11-14T20:46:16.150Z,69.77
2022-11-14T20:48:43.312Z,69.62
2022-11-14T20:51:19.443Z,69.78
2022-11-14T20:53:51.009Z,69.47
2022-11-14T20:56:18.114Z,69.68
2022-11-14T20:58:48.503Z,70.01
2022-11-14T21:01:16.082Z,70.27
2022-11-14T21:03:42.568Z,70.47
2022-11-14T21:06:12.252Z,69.94
2022-11-14T21:08:39.572Z,70.21
2022-11-14T21:11:18.185Z,69.65
2022-11-14T21:13:57.081Z,69.74
2022-11-14T21:16:32.413Z,69.46
2022-11-14T21:18:59.578Z,68.23
2022-11-14T21:21:27.422Z,68.84
2022-11-14T21:23:54.837Z,68.71
2022-11-14T21:26:24.535Z,69.08
2022-11-14T21:28:54.791Z,68.91
2022-11-14T21:31:31.554Z,69.57
2022-11-14T21:33:59.455Z,68.91
2022-11-14T21:36:44.260Z,69.94
2022-11-14T21:39:14.910Z,69.84
2022-11-14T21:41:42.331Z,69.96
2022-11-14T21:44:12.841Z,69.85
2022-11-14T21:46:39.242Z,69.32
2022-11-14T21:49:05.587Z,69.28
2022-11-14T21:51:32.003Z,69.13
2022-11-14T21:53:58.552Z,69.35
2022-11-14T21:56:27.593Z,68.82
2022-11-14T21:59:13.080Z,69.00
2022-11-14T22:02:02.724Z,68.80
2022-11-14T22:04:29.489Z,68.83
2022-11-14T22:06:56.082Z,69.11
2022-11-14T22:09:22.676Z,69.64
2022-11-14T22:11:49.063Z,69.36
2022-11-14T22:14:15.450Z,69.77
2022-11-14T22:16:41.876Z,69.54
2022-11-14T22:19:08.504Z,69.80
2022-11-14T22:21:34.861Z,69.28
2022-11-14T22:24:01.224Z,69.50
2022-11-14T22:26:27.797Z,69.84
2022-11-14T22:28:54.138Z,69.31
2022-11-14T22:31:22.667Z,69.76
2022-11-14T22:33:51.336Z,69.88
2022-11-14T22:36:23.664Z,70.12
2022-11-14T22:38:52.370Z,69.89
2022-11-14T22:41:28.997Z,69.96
2022-11-14T22:43:58.689Z,70.30
2022-11-14T22:46:25.362Z,70.24
2022-11-14T22:48:51.778Z,70.17
2022-11-14T22:51:21.162Z,70.85
2022-11-14T22:53:50.118Z,70.44
2022-11-14T22:56:18.372Z,70.84
2022-11-14T22:58:45.745Z,70.39
2022-11-14T23:01:14.502Z,71.25
2022-11-14T23:03:41.183Z,70.98
2022-11-14T23:06:14.283Z,71.30
2022-11-14T23:08:41.106Z,71.32
2022-11-14T23:11:10.717Z,71.41
2022-11-14T23:13:38.740Z,72.01
2022-11-14T23:16:07.859Z,71.22
2022-11-14T23:18:34.228Z,71.77
2022-11-14T23:21:12.303Z,71.51
2022-11-14T23:23:38.803Z,71.81
2022-11-14T23:26:07.533Z,71.69
2022-11-14T23:28:34.619Z,71.67
2022-11-14T23:31:01.702Z,72.21
2022-11-14T23:33:28.512Z,72.52
2022-11-14T23:35:55.024Z,72.04
2022-11-14T23:38:21.387Z,72.29
2022-11-14T23:40:59.460Z,72.92
2022-11-14T23:43:26.327Z,72.83
2022-11-14T23:45:52.790Z,73.25
2022-11-14T23:48:20.790Z,72.98
2022-11-14T23:50:55.467Z,73.62
2022-11-14T23:53:22.690Z,73.16
2022-11-14T23:55:57.269Z,73.43
2022-11-14T23:58:25.132Z,73.49
